createdAt,value
2023-04-22T00:02:23.720Z,93.56
2023-04-22T00:04:54.424Z,94.76
2023-04-22T00:07:27.904Z,93.23
2023-04-22T00:09:58.332Z,93.22
2023-04-22T00:12:28.929Z,92.43
2023-04-22T00:14:59.694Z,92.50
2023-04-22T00:17:30.686Z,92.76
2023-04-22T00:20:02.424Z,93.27
2023-04-22T00:22:33.440Z,92.94
2023-04-22T00:25:05.774Z,92.42
2023-04-22T00:27:35.612Z,92.64
2023-04-22T00:30:06.307Z,93.26
2023-04-22T00:32:36.109Z,93.80
2023-04-22T00:35:06.969Z,92.03
2023-04-22T00:37:39.238Z,91.49
2023-04-22T00:40:11.675Z,92.79
2023-04-22T00:42:42.175Z,93.91
2023-04-22T00:45:14.278Z,93.03
2023-04-22T00:47:45.226Z,92.99
2023-04-22T00:50:15.654Z,89.43
2023-04-22T00:52:48.205Z,90.31
2023-04-22T00:55:18.504Z,89.54
2023-04-22T00:57:49.593Z,91.46
2023-04-22T01:00:27.275Z,90.36
2023-04-22T01:02:57.150Z,92.30
2023-04-22T01:05:27.365Z,91.07
2023-04-22T01:07:58.843Z,92.85
2023-04-22T01:10:30.092Z,91.30
2023-04-22T01:13:01.521Z,91.21
2023-04-22T01:15:31.995Z,90.01
2023-04-22T01:18:03.707Z,89.71
2023-04-22T01:20:35.010Z,89.95
2023-04-22T01:23:16.946Z,88.40
2023-04-22T01:25:47.478Z,91.00
2023-04-22T01:28:18.279Z,91.25
2023-04-22T01:30:48.329Z,90.06
2023-04-22T01:33:19.024Z,91.48
2023-04-22T01:35:49.128Z,90.54
2023-04-22T01:38:20.821Z,92.44
2023-04-22T01:40:50.811Z,89.49
2023-04-22T01:43:20.884Z,90.99
2023-04-22T01:45:51.472Z,91.75
2023-04-22T01:48:21.898Z,91.53
2023-04-22T01:50:52.017Z,90.51
2023-04-22T01:53:23.885Z,91.03
2023-04-22T01:55:54.770Z,89.61
2023-04-22T01:58:25.070Z,90.21
2023-04-22T02:00:55.907Z,91.17
2023-04-22T02:03:26.059Z,91.25
2023-04-22T02:05:59.312Z,90.79
2023-04-22T02:08:31.106Z,91.83
2023-04-22T02:11:02.135Z,91.50
2023-04-22T02:13:38.577Z,93.03
2023-04-22T02:16:10.246Z,93.22
2023-04-22T02:18:41.711Z,92.76
2023-04-22T02:21:11.708Z,91.77
2023-04-22T02:23:43.038Z,87.98
2023-04-22T02:26:13.851Z,89.55
2023-04-22T02:28:44.540Z,89.18
2023-04-22T02:31:15.154Z,91.94
2023-04-22T02:33:45.182Z,89.73
2023-04-22T02:36:16.139Z,87.93
2023-04-22T02:38:48.934Z,90.52
2023-04-22T02:41:19.072Z,89.10
2023-04-22T02:43:50.510Z,89.39
2023-04-22T02:46:21.023Z,88.12
2023-04-22T02:48:51.367Z,88.33
2023-04-22T02:51:22.461Z,88.52
2023-04-22T02:53:54.941Z,89.29
2023-04-22T02:56:25.127Z,90.54
2023-04-22T02:58:54.843Z,89.19
2023-04-22T03:01:24.857Z,91.36
2023-04-22T03:03:55.298Z,88.31
2023-04-22T03:06:25.910Z,88.97
2023-04-22T03:08:57.473Z,90.12
2023-04-22T03:11:27.783Z,89.95
2023-04-22T03:13:57.922Z,88.94
2023-04-22T03:16:29.123Z,91.10
2023-04-22T03:19:00.124Z,89.71
2023-04-22T03:21:30.197Z,90.70
2023-04-22T03:24:02.084Z,88.50
2023-04-22T03:26:32.303Z,88.27
2023-04-22T03:29:02.712Z,88.21
2023-04-22T03:31:33.087Z,89.44
2023-04-22T03:34:03.170Z,90.57
2023-04-22T03:36:34.090Z,92.05
2023-04-22T03:39:06.030Z,90.39
2023-04-22T03:41:36.478Z,89.89
2023-04-22T03:44:06.403Z,87.40
2023-04-22T03:46:38.291Z,90.30
2023-04-22T03:49:08.831Z,93.28
2023-04-22T03:51:39.043Z,91.40
2023-04-22T03:54:11.816Z,90.35
2023-04-22T03:56:42.737Z,88.52
2023-04-22T03:59:12.978Z,86.90
2023-04-22T04:01:43.574Z,88.61
2023-04-22T04:04:14.646Z,86.81
2023-04-22T04:06:46.443Z,89.16
2023-04-22T04:09:18.339Z,88.95
2023-04-22T04:11:48.701Z,86.28
2023-04-22T04:14:18.456Z,89.54
2023-04-22T04:16:49.273Z,88.15
2023-04-22T04:19:19.759Z,89.63
2023-04-22T04:21:50.469Z,88.79
2023-04-22T04:24:23.222Z,88.07
2023-04-22T04:26:54.464Z,89.20
2023-04-22T04:29:24.071Z,88.95
2023-04-22T04:31:54.261Z,89.19
2023-04-22T04:34:24.987Z,86.76
2023-04-22T04:36:56.321Z,90.32
2023-04-22T04:39:29.816Z,88.18
2023-04-22T04:42:01.216Z,86.66
2023-04-22T04:44:32.706Z,88.49
2023-04-22T04:47:03.697Z,91.52
2023-04-22T04:49:33.466Z,88.91
2023-04-22T04:52:03.933Z,92.45
2023-04-22T04:54:35.241Z,90.60
2023-04-22T04:57:07.048Z,91.05
2023-04-22T04:59:37.723Z,91.12
2023-04-22T05:02:08.260Z,90.67
2023-04-22T05:04:39.214Z,91.77
2023-04-22T05:07:10.581Z,90.50
2023-04-22T05:09:41.965Z,91.65
2023-04-22T05:12:12.229Z,91.61
2023-04-22T05:14:42.513Z,90.97
2023-04-22T05:17:13.015Z,91.78
2023-04-22T05:19:43.315Z,90.51
2023-04-22T05:22:13.021Z,92.02
2023-04-22T05:24:44.188Z,91.98
2023-04-22T05:27:15.550Z,93.14
2023-04-22T05:29:46.289Z,93.23
2023-04-22T05:32:17.405Z,93.78
2023-04-22T05:34:47.360Z,92.73
2023-04-22T05:37:16.800Z,93.10
2023-04-22T05:39:48.931Z,95.58
2023-04-22T05:42:19.497Z,96.06
2023-04-22T05:44:49.604Z,100.00
2023-04-22T05:47:20.026Z,95.90
2023-04-22T05:49:50.732Z,96.34
2023-04-22T05:52:21.185Z,95.21
2023-04-22T05:54:52.474Z,93.78
2023-04-22T05:57:22.561Z,93.43
2023-04-22T05:59:52.585Z,94.03
2023-04-22T06:02:22.599Z,94.23
2023-04-22T06:04:53.263Z,94.65
2023-04-22T06:07:24.394Z,95.80
2023-04-22T06:10:04.611Z,95.39
2023-04-22T06:12:36.829Z,92.21
2023-04-22T06:15:08.016Z,92.56
2023-04-22T06:17:38.054Z,90.80
2023-04-22T06:20:09.890Z,91.82
2023-04-22T06:22:40.218Z,89.54
2023-04-22T06:25:12.908Z,90.03
2023-04-22T06:27:43.647Z,90.02
2023-04-22T06:30:13.704Z,89.27
2023-04-22T06:32:44.414Z,91.59
2023-04-22T06:35:14.467Z,89.59
2023-04-22T06:37:44.655Z,91.67
2023-04-22T06:40:17.634Z,90.01
2023-04-22T06:42:47.181Z,90.54
2023-04-22T06:45:16.957Z,88.66
2023-04-22T06:47:47.597Z,89.04
2023-04-22T06:50:18.267Z,89.18
2023-04-22T06:52:49.233Z,87.92
2023-04-22T06:55:22.208Z,85.89
2023-04-22T06:57:52.967Z,86.28
2023-04-22T07:00:23.411Z,86.12
2023-04-22T07:02:53.821Z,86.03
2023-04-22T07:05:25.240Z,85.38
2023-04-22T07:07:56.724Z,85.11
2023-04-22T07:10:28.864Z,84.10
2023-04-22T07:12:59.304Z,84.54
2023-04-22T07:15:30.568Z,84.33
2023-04-22T07:18:02.347Z,83.36
2023-04-22T07:20:32.472Z,83.47
2023-04-22T07:23:02.716Z,82.36
2023-04-22T07:25:34.333Z,81.47
2023-04-22T07:28:06.351Z,81.95
2023-04-22T07:30:37.224Z,80.78
2023-04-22T07:33:08.909Z,80.51
2023-04-22T07:35:39.011Z,79.43
2023-04-22T07:38:09.820Z,79.42
2023-04-22T07:40:43.243Z,80.32
2023-04-22T07:43:13.642Z,79.71
2023-04-22T07:45:44.299Z,80.98
2023-04-22T07:48:15.028Z,80.57
2023-04-22T07:50:45.661Z,80.31
2023-04-22T07:53:17.752Z,81.92
2023-04-22T07:55:50.262Z,78.53
2023-04-22T07:58:20.375Z,78.45
2023-04-22T08:00:52.530Z,78.50
2023-04-22T08:03:22.893Z,78.40
2023-04-22T08:05:53.181Z,77.72
2023-04-22T08:08:22.909Z,77.76
2023-04-22T08:10:55.687Z,76.60
2023-04-22T08:13:26.839Z,76.26
2023-04-22T08:15:57.104Z,74.18
2023-04-22T08:18:27.468Z,76.20
2023-04-22T08:20:57.228Z,72.58
2023-04-22T08:23:28.390Z,73.53
2023-04-22T08:25:59.679Z,74.38
2023-04-22T08:28:30.211Z,72.80
2023-04-22T08:31:01.193Z,69.55
2023-04-22T08:33:31.875Z,71.21
2023-04-22T08:36:04.266Z,68.92
2023-04-22T08:38:35.159Z,69.81
2023-04-22T08:41:08.222Z,68.50
2023-04-22T08:43:39.685Z,69.08
2023-04-22T08:46:10.371Z,67.61
2023-04-22T08:48:40.507Z,66.47
2023-04-22T08:51:11.651Z,65.57
2023-04-22T08:53:42.196Z,66.35
2023-04-22T08:56:15.188Z,68.00
2023-04-22T08:58:45.470Z,68.65
2023-04-22T09:01:18.112Z,65.94
2023-04-22T09:03:48.659Z,67.36
2023-04-22T09:06:19.611Z,68.34
2023-04-22T09:08:50.934Z,68.33
2023-04-22T09:11:23.111Z,68.21
2023-04-22T09:13:53.620Z,68.55
2023-04-22T09:16:23.716Z,66.94
2023-04-22T09:18:54.447Z,64.54
2023-04-22T09:21:31.598Z,65.10
2023-04-22T09:24:05.058Z,65.61
2023-04-22T09:26:43.315Z,64.48
2023-04-22T09:29:17.214Z,64.31
2023-04-22T09:31:52.084Z,63.57
2023-04-22T09:34:24.735Z,65.11
2023-04-22T09:36:54.470Z,65.00
2023-04-22T09:39:27.014Z,65.43
2023-04-22T09:41:59.353Z,64.97
2023-04-22T09:44:30.177Z,64.66
2023-04-22T09:47:02.525Z,64.09
2023-04-22T09:49:33.234Z,62.36
2023-04-22T09:52:03.771Z,60.05
2023-04-22T09:54:34.835Z,59.86
2023-04-22T09:57:13.977Z,58.58
2023-04-22T09:59:44.657Z,59.86
2023-04-22T10:02:15.944Z,59.21
2023-04-22T10:04:47.673Z,59.26
2023-04-22T10:07:19.015Z,57.91
2023-04-22T10:09:49.677Z,58.54
2023-04-22T10:12:32.999Z,57.82
2023-04-22T10:15:06.743Z,58.87
2023-04-22T10:17:40.181Z,60.95
2023-04-22T10:20:15.359Z,60.82
2023-04-22T10:22:46.699Z,59.20
2023-04-22T10:25:26.256Z,56.55
2023-04-22T10:28:05.424Z,55.92
2023-04-22T10:30:38.606Z,58.60
2023-04-22T10:33:40.742Z,59.94
2023-04-22T10:36:13.441Z,55.15
2023-04-22T10:39:17.147Z,55.17
2023-04-22T10:41:58.627Z,55.35
2023-04-22T10:44:48.070Z,56.77
2023-04-22T10:47:32.349Z,54.91
2023-04-22T10:50:21.523Z,56.07
2023-04-22T10:52:53.912Z,51.12
2023-04-22T10:55:24.557Z,52.03
2023-04-22T10:57:56.602Z,53.85
2023-04-22T11:00:53.312Z,50.96
2023-04-22T11:03:30.347Z,48.10
2023-04-22T11:06:28.278Z,52.35
2023-04-22T11:09:19.556Z,53.36
2023-04-22T11:11:51.448Z,52.48
2023-04-22T11:14:24.069Z,48.52
2023-04-22T11:16:57.658Z,45.53
2023-04-22T11:19:42.249Z,48.97
2023-04-22T11:22:13.798Z,49.27
2023-04-22T11:24:57.105Z,48.01
2023-04-22T11:27:27.702Z,46.79
2023-04-22T11:30:04.983Z,48.25
2023-04-22T11:32:38.139Z,49.63
2023-04-22T11:35:10.621Z,48.94
2023-04-22T11:37:45.785Z,48.50
2023-04-22T11:42:53.308Z,44.23
2023-04-22T11:45:23.760Z,44.99
2023-04-22T11:47:56.883Z,44.52
2023-04-22T11:50:30.019Z,45.01
2023-04-22T11:53:02.877Z,46.12
2023-04-22T11:55:35.208Z,44.92
2023-04-22T11:58:10.594Z,44.91
2023-04-22T12:00:45.343Z,45.42
2023-04-22T12:03:19.839Z,42.23
2023-04-22T12:05:53.769Z,42.63
2023-04-22T12:08:26.327Z,45.27
2023-04-22T12:10:58.157Z,40.60
2023-04-22T12:13:30.120Z,40.19
2023-04-22T12:16:01.946Z,44.28
2023-04-22T12:18:34.274Z,42.04
2023-04-22T12:21:14.125Z,41.97
2023-04-22T12:23:48.404Z,44.91
2023-04-22T12:26:25.400Z,39.50
2023-04-22T12:28:58.661Z,39.06
2023-04-22T12:31:30.035Z,37.79
2023-04-22T12:34:02.716Z,38.71
2023-04-22T12:36:34.213Z,39.83
2023-04-22T12:39:05.284Z,38.57
2023-04-22T12:41:35.748Z,38.70
2023-04-22T12:44:05.817Z,40.35
2023-04-22T12:46:36.487Z,40.88
2023-04-22T12:49:08.390Z,37.83
2023-04-22T12:51:38.911Z,38.60
2023-04-22T12:54:08.995Z,39.66
2023-04-22T12:56:39.870Z,39.10
2023-04-22T12:59:09.747Z,38.68
2023-04-22T13:01:40.645Z,37.20
2023-04-22T13:04:13.551Z,41.53
2023-04-22T13:06:44.428Z,37.01
2023-04-22T13:09:15.335Z,37.97
2023-04-22T13:11:45.950Z,37.49
2023-04-22T13:14:16.716Z,37.31
2023-04-22T13:16:47.211Z,38.75
2023-04-22T13:19:18.915Z,36.04
2023-04-22T13:21:49.200Z,36.92
2023-04-22T13:24:19.390Z,37.12
2023-04-22T13:26:49.975Z,33.21
2023-04-22T13:29:20.070Z,35.62
2023-04-22T13:31:50.375Z,35.52
2023-04-22T13:34:21.818Z,36.76
2023-04-22T13:36:52.322Z,34.04
2023-04-22T13:39:23.571Z,36.93
2023-04-22T13:41:54.931Z,38.31
2023-04-22T13:44:26.598Z,36.60
2023-04-22T13:46:57.022Z,36.56
2023-04-22T13:49:28.493Z,38.18
2023-04-22T13:52:00.035Z,36.97
2023-04-22T13:54:31.500Z,36.42
2023-04-22T13:57:01.209Z,35.92
2023-04-22T13:59:34.263Z,33.97
2023-04-22T14:02:03.925Z,37.61
2023-04-22T14:04:36.384Z,36.38
2023-04-22T14:07:06.422Z,34.79
2023-04-22T14:09:37.234Z,37.83
2023-04-22T14:12:08.140Z,33.83
2023-04-22T14:14:38.297Z,35.51
2023-04-22T14:17:08.597Z,36.64
2023-04-22T14:19:41.861Z,37.33
2023-04-22T14:22:12.706Z,35.85
2023-04-22T14:24:43.326Z,35.61
2023-04-22T14:27:14.780Z,36.38
2023-04-22T14:29:46.309Z,34.92
2023-04-22T14:32:18.565Z,35.81
2023-04-22T14:34:49.757Z,34.01
2023-04-22T14:37:21.649Z,36.22
2023-04-22T14:39:53.000Z,38.23
2023-04-22T14:42:23.092Z,36.87
2023-04-22T14:44:52.967Z,35.18
2023-04-22T14:47:26.966Z,36.50
2023-04-22T14:50:01.408Z,35.29
2023-04-22T14:52:34.896Z,36.26
2023-04-22T14:55:15.516Z,36.75
2023-04-22T14:57:54.490Z,35.35
2023-04-22T15:00:24.775Z,35.77
2023-04-22T15:02:55.722Z,36.97
2023-04-22T15:05:27.841Z,39.63
2023-04-22T15:07:59.297Z,36.42
2023-04-22T15:10:30.071Z,36.61
2023-04-22T15:13:00.565Z,36.01
2023-04-22T15:15:32.624Z,35.61
2023-04-22T15:18:05.914Z,39.00
2023-04-22T15:20:37.710Z,36.78
2023-04-22T15:23:07.664Z,37.83
2023-04-22T15:25:37.871Z,37.27
2023-04-22T15:28:10.398Z,39.21
2023-04-22T15:30:40.996Z,38.07
2023-04-22T15:33:11.795Z,39.28
2023-04-22T15:35:45.920Z,37.70
2023-04-22T15:38:18.161Z,37.21
2023-04-22T15:40:48.117Z,38.24
2023-04-22T15:43:18.240Z,38.03
2023-04-22T15:45:49.530Z,38.05
2023-04-22T15:48:19.641Z,39.06
2023-04-22T15:50:51.413Z,39.07
2023-04-22T15:53:21.964Z,38.01
2023-04-22T15:55:51.896Z,39.00
2023-04-22T15:58:22.106Z,41.16
2023-04-22T16:00:52.421Z,40.75
2023-04-22T16:03:23.073Z,39.65
2023-04-22T16:05:54.680Z,39.14
2023-04-22T16:08:25.002Z,39.97
2023-04-22T16:10:55.017Z,40.68
2023-04-22T16:13:26.686Z,40.69
2023-04-22T16:15:56.626Z,40.71
2023-04-22T16:18:27.031Z,40.51
2023-04-22T16:20:58.974Z,40.87
2023-04-22T16:23:29.386Z,39.67
2023-04-22T16:25:59.402Z,43.04
2023-04-22T16:28:29.643Z,41.38
2023-04-22T16:31:00.620Z,40.74
2023-04-22T16:33:31.391Z,41.22
2023-04-22T16:36:04.051Z,41.58
2023-04-22T16:38:34.535Z,40.53
2023-04-22T16:41:05.898Z,40.83
2023-04-22T16:43:36.807Z,42.26
2023-04-22T16:46:08.799Z,42.95
2023-04-22T16:48:40.155Z,41.57
2023-04-22T16:51:13.062Z,41.42
2023-04-22T16:53:43.721Z,42.35
2023-04-22T16:56:14.836Z,42.21
2023-04-22T16:58:45.385Z,42.81
2023-04-22T17:01:15.846Z,42.26
2023-04-22T17:03:46.758Z,43.22
2023-04-22T17:06:18.874Z,43.90
2023-04-22T17:08:48.800Z,42.62
2023-04-22T17:11:18.602Z,43.08
2023-04-22T17:13:49.507Z,42.67
2023-04-22T17:16:19.505Z,44.94
2023-04-22T17:18:50.489Z,45.28
2023-04-22T17:21:23.578Z,44.85
2023-04-22T17:23:54.300Z,45.62
2023-04-22T17:26:24.869Z,45.40
2023-04-22T17:28:55.939Z,46.46
2023-04-22T17:31:27.334Z,46.85
2023-04-22T17:33:57.838Z,47.05
2023-04-22T17:36:32.469Z,46.65
2023-04-22T17:39:02.743Z,48.28
2023-04-22T17:41:35.843Z,47.33
2023-04-22T17:44:08.054Z,48.95
2023-04-22T17:46:38.662Z,50.02
2023-04-22T17:49:08.396Z,50.56
2023-04-22T17:51:42.097Z,50.50
2023-04-22T17:54:12.341Z,51.12
2023-04-22T17:56:43.874Z,51.35
2023-04-22T17:59:14.449Z,51.72
2023-04-22T18:01:44.639Z,51.78
2023-04-22T18:04:17.758Z,52.81
2023-04-22T18:06:49.818Z,52.70
2023-04-22T18:09:19.405Z,53.53
2023-04-22T18:11:49.899Z,53.35
2023-04-22T18:14:22.650Z,54.30
2023-04-22T18:16:52.954Z,54.00
2023-04-22T18:19:22.963Z,55.34
2023-04-22T18:22:00.069Z,55.73
2023-04-22T18:24:30.954Z,56.88
2023-04-22T18:27:01.630Z,57.26
2023-04-22T18:29:32.657Z,56.94
2023-04-22T18:32:03.306Z,58.72
2023-04-22T18:34:33.706Z,59.41
2023-04-22T18:37:06.404Z,58.45
2023-04-22T18:39:38.343Z,58.77
2023-04-22T18:42:10.685Z,59.46
2023-04-22T18:44:41.461Z,59.18
2023-04-22T18:47:12.011Z,59.77
2023-04-22T18:49:42.032Z,60.29
2023-04-22T18:52:13.786Z,61.14
2023-04-22T18:54:44.774Z,61.12
2023-04-22T18:57:15.085Z,61.45
2023-04-22T18:59:44.827Z,61.73
2023-04-22T19:02:16.159Z,60.99
2023-04-22T19:04:46.463Z,61.42
2023-04-22T19:07:17.783Z,61.76
2023-04-22T19:09:47.888Z,62.14
2023-04-22T19:12:20.008Z,61.91
2023-04-22T19:14:50.472Z,62.84
2023-04-22T19:17:21.136Z,62.49
2023-04-22T19:19:51.467Z,63.20
2023-04-22T19:22:25.251Z,63.36
2023-04-22T19:24:56.186Z,63.64
2023-04-22T19:27:27.725Z,64.49
2023-04-22T19:29:57.580Z,65.09
2023-04-22T19:32:27.750Z,65.05
2023-04-22T19:34:57.452Z,65.84
2023-04-22T19:37:29.825Z,66.31
2023-04-22T19:40:00.203Z,65.70
2023-04-22T19:42:30.826Z,66.67
2023-04-22T19:45:00.626Z,67.32
2023-04-22T19:47:31.628Z,67.46
2023-04-22T19:50:02.207Z,67.66
2023-04-22T19:52:35.408Z,68.84
2023-04-22T19:55:10.692Z,68.30
2023-04-22T19:57:42.476Z,68.20
2023-04-22T20:00:14.908Z,68.12
2023-04-22T20:02:47.128Z,68.20
2023-04-22T20:05:19.206Z,69.12
2023-04-22T20:07:52.181Z,69.58
2023-04-22T20:10:22.874Z,70.12
2023-04-22T20:12:53.402Z,69.84
2023-04-22T20:15:23.853Z,69.90
2023-04-22T20:17:55.354Z,70.46
2023-04-22T20:20:26.364Z,70.92
2023-04-22T20:23:01.477Z,71.21
2023-04-22T20:25:32.758Z,71.24
2023-04-22T20:28:04.367Z,71.62
2023-04-22T20:30:35.416Z,71.67
2023-04-22T20:33:06.893Z,71.00
2023-04-22T20:35:38.401Z,70.93
2023-04-22T20:38:13.653Z,71.53
2023-04-22T20:40:45.140Z,71.40
2023-04-22T20:43:16.055Z,71.62
2023-04-22T20:45:46.725Z,70.31
2023-04-22T20:48:18.137Z,70.26
2023-04-22T20:50:50.188Z,69.96
2023-04-22T20:53:22.453Z,70.79
2023-04-22T20:55:54.438Z,69.82
2023-04-22T20:58:25.037Z,70.76
2023-04-22T21:00:55.806Z,70.83
2023-04-22T21:03:27.788Z,70.19
2023-04-22T21:05:59.912Z,70.44
2023-04-22T21:08:33.517Z,70.35
2023-04-22T21:11:03.859Z,70.44
2023-04-22T21:13:34.061Z,70.96
2023-04-22T21:16:05.669Z,69.43
2023-04-22T21:18:36.817Z,70.65
2023-04-22T21:21:08.584Z,70.14
2023-04-22T21:23:41.884Z,70.75
2023-04-22T21:26:13.546Z,70.34
2023-04-22T21:28:45.667Z,70.47
2023-04-22T21:31:17.315Z,69.70
2023-04-22T21:33:48.638Z,70.19
2023-04-22T21:36:19.226Z,71.45
2023-04-22T21:38:51.782Z,70.69
2023-04-22T21:41:21.907Z,70.62
2023-04-22T21:43:52.940Z,70.43
2023-04-22T21:46:24.815Z,70.83
2023-04-22T21:48:55.624Z,70.44
2023-04-22T21:51:25.705Z,70.19
2023-04-22T21:53:57.986Z,71.10
2023-04-22T21:56:31.495Z,70.45
2023-04-22T21:59:01.757Z,71.14
2023-04-22T22:01:33.400Z,71.38
2023-04-22T22:04:05.021Z,72.37
2023-04-22T22:06:35.440Z,71.82
2023-04-22T22:09:08.100Z,72.89
2023-04-22T22:11:37.914Z,73.08
2023-04-22T22:14:08.542Z,72.30
2023-04-22T22:16:40.847Z,72.75
2023-04-22T22:19:12.426Z,72.85
2023-04-22T22:21:42.497Z,72.43
2023-04-22T22:24:15.596Z,73.05
2023-04-22T22:26:47.041Z,73.26
2023-04-22T22:29:18.083Z,73.54
2023-04-22T22:31:48.725Z,74.39
2023-04-22T22:34:19.150Z,74.74
2023-04-22T22:36:49.401Z,73.23
2023-04-22T22:39:21.632Z,74.43
2023-04-22T22:41:51.592Z,73.92
2023-04-22T22:44:22.427Z,74.41
2023-04-22T22:46:53.628Z,75.67
2023-04-22T22:49:24.425Z,75.72
2023-04-22T22:51:55.201Z,75.17
2023-04-22T22:54:28.255Z,75.86
2023-04-22T22:56:59.201Z,76.07
2023-04-22T22:59:29.274Z,76.38
2023-04-22T23:02:00.734Z,76.40
2023-04-22T23:04:31.233Z,75.93
2023-04-22T23:07:01.756Z,76.64
2023-04-22T23:09:33.588Z,75.99
2023-04-22T23:12:03.632Z,77.34
2023-04-22T23:14:34.186Z,77.11
2023-04-22T23:17:04.897Z,78.97
2023-04-22T23:19:34.969Z,79.15
2023-04-22T23:22:06.364Z,79.79
2023-04-22T23:24:39.752Z,79.80
2023-04-22T23:27:11.102Z,79.94
2023-04-22T23:29:43.046Z,80.12
2023-04-22T23:32:19.252Z,78.59
2023-04-22T23:34:52.131Z,79.47
2023-04-22T23:37:23.321Z,79.04
2023-04-22T23:39:55.749Z,79.53
2023-04-22T23:42:25.739Z,80.70
2023-04-22T23:44:56.744Z,80.71
2023-04-22T23:47:27.915Z,79.65
2023-04-22T23:49:58.627Z,80.68
2023-04-22T23:52:28.630Z,81.02
2023-04-22T23:55:00.755Z,80.87
2023-04-22T23:57:31.648Z,80.26
